sensor_id;sensor_type;location;lat;lon;timestamp;P1;durP1;ratioP1;P2;durP2;ratioP2
14847;SDS011;7516;43.570;1.448;2023-02-28T00:01:41;4.90;;;2.90;;
14847;SDS011;7516;43.570;1.448;2023-02-28T00:04:09;4.20;;;2.50;;
14847;SDS011;7516;43.570;1.448;2023-02-28T00:06:36;4.30;;;2.73;;
14847;SDS011;7516;43.570;1.448;2023-02-28T00:09:04;3.47;;;2.90;;
14847;SDS011;7516;43.570;1.448;2023-02-28T00:11:32;3.37;;;2.70;;
14847;SDS011;7516;43.570;1.448;2023-02-28T00:14:01;4.60;;;2.57;;
14847;SDS011;7516;43.570;1.448;2023-02-28T00:16:28;4.00;;;2.70;;
14847;SDS011;7516;43.570;1.448;2023-02-28T00:18:56;4.03;;;2.80;;
14847;SDS011;7516;43.570;1.448;2023-02-28T00:21:23;3.43;;;2.80;;
14847;SDS011;7516;43.570;1.448;2023-02-28T00:23:51;4.27;;;2.67;;
14847;SDS011;7516;43.570;1.448;2023-02-28T00:26:19;3.50;;;2.37;;
14847;SDS011;7516;43.570;1.448;2023-02-28T00:28:46;5.67;;;2.30;;
14847;SDS011;7516;43.570;1.448;2023-02-28T00:31:15;2.33;;;2.00;;
14847;SDS011;7516;43.570;1.448;2023-02-28T00:33:43;2.90;;;1.90;;
14847;SDS011;7516;43.570;1.448;2023-02-28T00:36:11;2.87;;;1.70;;
14847;SDS011;7516;43.570;1.448;2023-02-28T00:38:39;2.17;;;1.77;;
14847;SDS011;7516;43.570;1.448;2023-02-28T00:41:07;2.50;;;1.70;;
14847;SDS011;7516;43.570;1.448;2023-02-28T00:43:36;2.87;;;2.40;;
14847;SDS011;7516;43.570;1.448;2023-02-28T00:46:05;3.20;;;2.37;;
14847;SDS011;7516;43.570;1.448;2023-02-28T00:48:34;1.87;;;1.67;;
14847;SDS011;7516;43.570;1.448;2023-02-28T00:51:03;2.50;;;1.80;;
14847;SDS011;7516;43.570;1.448;2023-02-28T00:53:30;2.93;;;1.60;;
14847;SDS011;7516;43.570;1.448;2023-02-28T00:55:58;1.87;;;1.30;;
14847;SDS011;7516;43.570;1.448;2023-02-28T00:58:26;1.83;;;1.30;;
14847;SDS011;7516;43.570;1.448;2023-02-28T01:00:53;1.57;;;1.27;;
14847;SDS011;7516;43.570;1.448;2023-02-28T01:03:21;1.30;;;1.10;;
14847;SDS011;7516;43.570;1.448;2023-02-28T01:05:50;1.47;;;1.20;;
14847;SDS011;7516;43.570;1.448;2023-02-28T01:08:18;1.80;;;1.40;;
14847;SDS011;7516;43.570;1.448;2023-02-28T01:10:46;1.60;;;1.10;;
14847;SDS011;7516;43.570;1.448;2023-02-28T01:13:13;1.40;;;1.20;;
14847;SDS011;7516;43.570;1.448;2023-02-28T01:15:42;1.10;;;0.90;;
14847;SDS011;7516;43.570;1.448;2023-02-28T01:18:12;1.70;;;1.07;;
14847;SDS011;7516;43.570;1.448;2023-02-28T01:20:39;2.93;;;2.40;;
14847;SDS011;7516;43.570;1.448;2023-02-28T01:23:08;2.70;;;1.67;;
14847;SDS011;7516;43.570;1.448;2023-02-28T01:25:36;2.00;;;1.50;;
14847;SDS011;7516;43.570;1.448;2023-02-28T01:28:04;2.37;;;1.90;;
14847;SDS011;7516;43.570;1.448;2023-02-28T01:30:32;2.23;;;1.80;;
14847;SDS011;7516;43.570;1.448;2023-02-28T01:32:59;2.87;;;1.80;;
14847;SDS011;7516;43.570;1.448;2023-02-28T01:35:27;1.83;;;1.33;;
14847;SDS011;7516;43.570;1.448;2023-02-28T01:37:54;2.40;;;1.73;;
14847;SDS011;7516;43.570;1.448;2023-02-28T01:40:23;2.10;;;1.90;;
14847;SDS011;7516;43.570;1.448;2023-02-28T01:42:51;1.90;;;1.50;;
14847;SDS011;7516;43.570;1.448;2023-02-28T01:45:20;1.90;;;1.70;;
14847;SDS011;7516;43.570;1.448;2023-02-28T01:47:52;2.00;;;1.60;;
14847;SDS011;7516;43.570;1.448;2023-02-28T01:50:24;2.20;;;1.27;;
14847;SDS011;7516;43.570;1.448;2023-02-28T01:52:56;1.20;;;1.10;;
14847;SDS011;7516;43.570;1.448;2023-02-28T01:55:29;1.90;;;1.50;;
14847;SDS011;7516;43.570;1.448;2023-02-28T01:57:58;2.53;;;1.57;;
14847;SDS011;7516;43.570;1.448;2023-02-28T02:00:30;2.13;;;1.60;;
14847;SDS011;7516;43.570;1.448;2023-02-28T02:02:58;3.60;;;2.17;;
14847;SDS011;7516;43.570;1.448;2023-02-28T02:05:30;2.23;;;1.73;;
14847;SDS011;7516;43.570;1.448;2023-02-28T02:08:01;3.40;;;1.70;;
14847;SDS011;7516;43.570;1.448;2023-02-28T02:10:32;2.57;;;1.80;;
14847;SDS011;7516;43.570;1.448;2023-02-28T02:13:08;4.43;;;2.83;;
14847;SDS011;7516;43.570;1.448;2023-02-28T02:15:51;4.00;;;2.73;;
14847;SDS011;7516;43.570;1.448;2023-02-28T02:18:27;3.30;;;1.90;;
14847;SDS011;7516;43.570;1.448;2023-02-28T02:21:18;3.40;;;2.27;;
14847;SDS011;7516;43.570;1.448;2023-02-28T02:24:20;2.60;;;1.87;;
14847;SDS011;7516;43.570;1.448;2023-02-28T02:27:17;2.70;;;1.97;;
14847;SDS011;7516;43.570;1.448;2023-02-28T02:35:47;3.27;;;2.00;;
14847;SDS011;7516;43.570;1.448;2023-02-28T02:38:26;5.77;;;2.83;;
14847;SDS011;7516;43.570;1.448;2023-02-28T02:41:03;2.70;;;2.40;;
14847;SDS011;7516;43.570;1.448;2023-02-28T02:43:43;2.77;;;1.90;;
14847;SDS011;7516;43.570;1.448;2023-02-28T02:46:15;2.40;;;1.93;;
14847;SDS011;7516;43.570;1.448;2023-02-28T02:48:46;2.00;;;1.73;;
14847;SDS011;7516;43.570;1.448;2023-02-28T02:51:16;2.57;;;1.87;;
14847;SDS011;7516;43.570;1.448;2023-02-28T02:53:48;3.67;;;2.37;;
14847;SDS011;7516;43.570;1.448;2023-02-28T02:56:21;4.47;;;3.07;;
14847;SDS011;7516;43.570;1.448;2023-02-28T02:58:53;4.57;;;2.90;;
14847;SDS011;7516;43.570;1.448;2023-02-28T03:01:25;3.13;;;2.27;;
14847;SDS011;7516;43.570;1.448;2023-02-28T03:03:56;3.87;;;2.60;;
14847;SDS011;7516;43.570;1.448;2023-02-28T03:06:27;3.80;;;3.20;;
14847;SDS011;7516;43.570;1.448;2023-02-28T03:08:55;4.30;;;3.50;;
14847;SDS011;7516;43.570;1.448;2023-02-28T03:11:22;6.07;;;3.57;;
14847;SDS011;7516;43.570;1.448;2023-02-28T03:14:03;3.93;;;3.10;;
14847;SDS011;7516;43.570;1.448;2023-02-28T03:16:56;3.77;;;3.43;;
14847;SDS011;7516;43.570;1.448;2023-02-28T03:19:51;5.33;;;3.60;;
14847;SDS011;7516;43.570;1.448;2023-02-28T03:22:47;4.70;;;3.30;;
14847;SDS011;7516;43.570;1.448;2023-02-28T03:25:27;5.10;;;3.60;;
14847;SDS011;7516;43.570;1.448;2023-02-28T03:28:00;5.20;;;3.47;;
14847;SDS011;7516;43.570;1.448;2023-02-28T03:30:36;4.20;;;3.60;;
14847;SDS011;7516;43.570;1.448;2023-02-28T03:33:08;5.33;;;3.90;;
14847;SDS011;7516;43.570;1.448;2023-02-28T03:35:42;4.67;;;3.80;;
14847;SDS011;7516;43.570;1.448;2023-02-28T03:38:16;3.70;;;3.30;;
14847;SDS011;7516;43.570;1.448;2023-02-28T03:40:49;6.03;;;3.90;;
14847;SDS011;7516;43.570;1.448;2023-02-28T03:43:23;5.07;;;4.33;;
14847;SDS011;7516;43.570;1.448;2023-02-28T03:45:53;4.87;;;3.90;;
14847;SDS011;7516;43.570;1.448;2023-02-28T03:48:23;4.57;;;3.70;;
14847;SDS011;7516;43.570;1.448;2023-02-28T03:50:57;5.47;;;3.90;;
14847;SDS011;7516;43.570;1.448;2023-02-28T03:53:29;5.07;;;3.90;;
14847;SDS011;7516;43.570;1.448;2023-02-28T03:56:01;5.10;;;4.60;;
14847;SDS011;7516;43.570;1.448;2023-02-28T03:58:35;5.30;;;4.10;;
14847;SDS011;7516;43.570;1.448;2023-02-28T04:01:09;5.43;;;3.30;;
14847;SDS011;7516;43.570;1.448;2023-02-28T04:03:39;4.57;;;3.70;;
14847;SDS011;7516;43.570;1.448;2023-02-28T04:06:07;6.97;;;3.97;;
14847;SDS011;7516;43.570;1.448;2023-02-28T04:08:42;5.20;;;4.03;;
14847;SDS011;7516;43.570;1.448;2023-02-28T04:11:13;4.83;;;3.90;;
14847;SDS011;7516;43.570;1.448;2023-02-28T04:13:46;5.30;;;3.83;;
14847;SDS011;7516;43.570;1.448;2023-02-28T04:16:13;6.90;;;3.90;;
14847;SDS011;7516;43.570;1.448;2023-02-28T04:18:41;5.53;;;3.70;;
14847;SDS011;7516;43.570;1.448;2023-02-28T04:21:09;5.43;;;4.17;;
14847;SDS011;7516;43.570;1.448;2023-02-28T04:23:37;4.53;;;3.83;;
14847;SDS011;7516;43.570;1.448;2023-02-28T04:26:06;6.23;;;3.50;;
14847;SDS011;7516;43.570;1.448;2023-02-28T04:28:34;5.07;;;3.53;;
14847;SDS011;7516;43.570;1.448;2023-02-28T04:31:03;5.80;;;3.87;;
14847;SDS011;7516;43.570;1.448;2023-02-28T04:33:32;5.73;;;4.20;;
14847;SDS011;7516;43.570;1.448;2023-02-28T04:36:00;5.00;;;4.00;;
14847;SDS011;7516;43.570;1.448;2023-02-28T04:38:29;4.67;;;3.93;;
14847;SDS011;7516;43.570;1.448;2023-02-28T04:40:58;6.67;;;3.90;;
14847;SDS011;7516;43.570;1.448;2023-02-28T04:43:28;4.30;;;3.00;;
14847;SDS011;7516;43.570;1.448;2023-02-28T04:45:56;3.37;;;2.90;;
14847;SDS011;7516;43.570;1.448;2023-02-28T04:48:27;3.90;;;2.87;;
14847;SDS011;7516;43.570;1.448;2023-02-28T04:50:59;3.47;;;2.93;;
14847;SDS011;7516;43.570;1.448;2023-02-28T04:53:27;3.20;;;2.40;;
14847;SDS011;7516;43.570;1.448;2023-02-28T04:55:55;3.73;;;3.10;;
14847;SDS011;7516;43.570;1.448;2023-02-28T04:58:23;4.00;;;3.30;;
14847;SDS011;7516;43.570;1.448;2023-02-28T05:00:52;6.27;;;3.37;;
14847;SDS011;7516;43.570;1.448;2023-02-28T05:03:27;6.23;;;3.90;;
14847;SDS011;7516;43.570;1.448;2023-02-28T05:05:54;4.10;;;2.90;;
14847;SDS011;7516;43.570;1.448;2023-02-28T05:08:22;3.50;;;2.60;;
14847;SDS011;7516;43.570;1.448;2023-02-28T05:10:50;2.80;;;2.00;;
14847;SDS011;7516;43.570;1.448;2023-02-28T05:13:17;3.50;;;2.97;;
14847;SDS011;7516;43.570;1.448;2023-02-28T05:15:45;3.87;;;2.83;;
14847;SDS011;7516;43.570;1.448;2023-02-28T05:18:14;3.10;;;2.40;;
14847;SDS011;7516;43.570;1.448;2023-02-28T05:20:41;2.43;;;1.87;;
14847;SDS011;7516;43.570;1.448;2023-02-28T05:23:09;3.07;;;1.97;;
14847;SDS011;7516;43.570;1.448;2023-02-28T05:25:39;4.60;;;2.87;;
14847;SDS011;7516;43.570;1.448;2023-02-28T05:28:07;5.60;;;3.00;;
14847;SDS011;7516;43.570;1.448;2023-02-28T05:30:35;3.47;;;2.83;;
14847;SDS011;7516;43.570;1.448;2023-02-28T05:33:02;4.07;;;3.30;;
14847;SDS011;7516;43.570;1.448;2023-02-28T05:35:31;3.73;;;2.80;;
14847;SDS011;7516;43.570;1.448;2023-02-28T05:37:59;3.83;;;2.70;;
14847;SDS011;7516;43.570;1.448;2023-02-28T05:40:26;4.07;;;2.27;;
14847;SDS011;7516;43.570;1.448;2023-02-28T05:42:54;3.20;;;2.37;;
14847;SDS011;7516;43.570;1.448;2023-02-28T05:45:21;2.23;;;1.90;;
14847;SDS011;7516;43.570;1.448;2023-02-28T05:47:49;1.67;;;1.53;;
14847;SDS011;7516;43.570;1.448;2023-02-28T05:50:20;2.43;;;1.83;;
14847;SDS011;7516;43.570;1.448;2023-02-28T05:52:50;1.73;;;1.17;;
14847;SDS011;7516;43.570;1.448;2023-02-28T05:55:17;1.73;;;1.33;;
14847;SDS011;7516;43.570;1.448;2023-02-28T05:57:45;2.87;;;1.20;;
14847;SDS011;7516;43.570;1.448;2023-02-28T06:00:13;2.47;;;1.33;;
14847;SDS011;7516;43.570;1.448;2023-02-28T06:02:42;1.53;;;1.03;;
14847;SDS011;7516;43.570;1.448;2023-02-28T06:05:12;1.33;;;1.00;;
14847;SDS011;7516;43.570;1.448;2023-02-28T06:07:41;1.20;;;0.80;;
14847;SDS011;7516;43.570;1.448;2023-02-28T06:10:10;1.13;;;1.03;;
14847;SDS011;7516;43.570;1.448;2023-02-28T06:12:39;1.17;;;1.00;;
14847;SDS011;7516;43.570;1.448;2023-02-28T06:15:09;1.47;;;1.10;;
14847;SDS011;7516;43.570;1.448;2023-02-28T06:17:38;1.67;;;1.30;;
14847;SDS011;7516;43.570;1.448;2023-02-28T06:20:07;1.23;;;1.03;;
14847;SDS011;7516;43.570;1.448;2023-02-28T06:22:37;1.60;;;1.30;;
14847;SDS011;7516;43.570;1.448;2023-02-28T06:25:06;2.30;;;1.20;;
14847;SDS011;7516;43.570;1.448;2023-02-28T06:27:36;1.17;;;1.03;;
14847;SDS011;7516;43.570;1.448;2023-02-28T06:30:04;1.47;;;1.07;;
14847;SDS011;7516;43.570;1.448;2023-02-28T06:32:33;1.77;;;1.40;;
14847;SDS011;7516;43.570;1.448;2023-02-28T06:35:01;3.60;;;1.40;;
14847;SDS011;7516;43.570;1.448;2023-02-28T06:37:30;4.10;;;1.70;;
14847;SDS011;7516;43.570;1.448;2023-02-28T06:39:57;1.60;;;1.40;;
14847;SDS011;7516;43.570;1.448;2023-02-28T06:42:25;2.53;;;1.40;;
14847;SDS011;7516;43.570;1.448;2023-02-28T06:44:55;2.60;;;2.10;;
14847;SDS011;7516;43.570;1.448;2023-02-28T06:47:23;1.90;;;1.40;;
14847;SDS011;7516;43.570;1.448;2023-02-28T06:49:50;1.87;;;1.50;;
14847;SDS011;7516;43.570;1.448;2023-02-28T06:52:18;2.03;;;1.43;;
14847;SDS011;7516;43.570;1.448;2023-02-28T06:54:47;1.67;;;1.03;;
14847;SDS011;7516;43.570;1.448;2023-02-28T06:57:24;1.70;;;1.30;;
14847;SDS011;7516;43.570;1.448;2023-02-28T06:59:57;1.27;;;1.00;;
14847;SDS011;7516;43.570;1.448;2023-02-28T07:02:25;1.77;;;1.30;;
14847;SDS011;7516;43.570;1.448;2023-02-28T07:04:53;1.97;;;1.17;;
14847;SDS011;7516;43.570;1.448;2023-02-28T07:07:20;1.67;;;1.17;;
14847;SDS011;7516;43.570;1.448;2023-02-28T07:09:48;1.60;;;1.23;;
14847;SDS011;7516;43.570;1.448;2023-02-28T07:12:15;1.40;;;1.23;;
14847;SDS011;7516;43.570;1.448;2023-02-28T07:14:43;2.20;;;1.20;;
14847;SDS011;7516;43.570;1.448;2023-02-28T07:17:12;1.80;;;1.20;;
14847;SDS011;7516;43.570;1.448;2023-02-28T07:19:39;1.70;;;1.10;;
14847;SDS011;7516;43.570;1.448;2023-02-28T07:22:07;1.60;;;1.20;;
14847;SDS011;7516;43.570;1.448;2023-02-28T07:24:35;1.50;;;1.20;;
14847;SDS011;7516;43.570;1.448;2023-02-28T07:27:03;1.10;;;1.00;;
14847;SDS011;7516;43.570;1.448;2023-02-28T07:29:31;1.40;;;1.00;;
14847;SDS011;7516;43.570;1.448;2023-02-28T07:31:59;1.93;;;1.07;;
14847;SDS011;7516;43.570;1.448;2023-02-28T07:34:28;1.57;;;1.37;;
14847;SDS011;7516;43.570;1.448;2023-02-28T07:36:55;1.73;;;1.20;;
14847;SDS011;7516;43.570;1.448;2023-02-28T07:39:23;2.10;;;1.43;;
14847;SDS011;7516;43.570;1.448;2023-02-28T07:41:50;1.90;;;1.10;;
14847;SDS011;7516;43.570;1.448;2023-02-28T07:44:18;1.80;;;1.30;;
14847;SDS011;7516;43.570;1.448;2023-02-28T07:46:46;1.50;;;1.00;;
14847;SDS011;7516;43.570;1.448;2023-02-28T07:49:13;2.17;;;1.60;;
14847;SDS011;7516;43.570;1.448;2023-02-28T07:51:42;1.83;;;1.30;;
14847;SDS011;7516;43.570;1.448;2023-02-28T07:54:10;3.63;;;1.43;;
14847;SDS011;7516;43.570;1.448;2023-02-28T07:56:37;3.63;;;3.00;;
14847;SDS011;7516;43.570;1.448;2023-02-28T07:59:05;2.57;;;2.30;;
14847;SDS011;7516;43.570;1.448;2023-02-28T08:01:32;3.70;;;2.50;;
14847;SDS011;7516;43.570;1.448;2023-02-28T08:04:00;4.77;;;3.20;;
14847;SDS011;7516;43.570;1.448;2023-02-28T08:06:28;4.57;;;3.07;;
14847;SDS011;7516;43.570;1.448;2023-02-28T08:08:56;5.73;;;4.00;;
14847;SDS011;7516;43.570;1.448;2023-02-28T08:11:24;5.57;;;4.30;;
14847;SDS011;7516;43.570;1.448;2023-02-28T08:13:51;7.50;;;4.80;;
14847;SDS011;7516;43.570;1.448;2023-02-28T08:16:20;6.03;;;4.90;;
14847;SDS011;7516;43.570;1.448;2023-02-28T08:18:48;7.23;;;4.53;;
14847;SDS011;7516;43.570;1.448;2023-02-28T08:21:17;5.40;;;4.27;;
14847;SDS011;7516;43.570;1.448;2023-02-28T08:23:46;8.10;;;5.07;;
14847;SDS011;7516;43.570;1.448;2023-02-28T08:26:15;6.93;;;5.23;;
14847;SDS011;7516;43.570;1.448;2023-02-28T08:28:43;7.10;;;5.80;;
14847;SDS011;7516;43.570;1.448;2023-02-28T08:31:11;6.03;;;5.20;;
14847;SDS011;7516;43.570;1.448;2023-02-28T08:33:41;7.10;;;5.40;;
14847;SDS011;7516;43.570;1.448;2023-02-28T08:36:09;7.03;;;5.33;;
14847;SDS011;7516;43.570;1.448;2023-02-28T08:38:38;7.43;;;5.00;;
14847;SDS011;7516;43.570;1.448;2023-02-28T08:41:07;6.07;;;5.43;;
14847;SDS011;7516;43.570;1.448;2023-02-28T08:43:37;7.73;;;5.20;;
14847;SDS011;7516;43.570;1.448;2023-02-28T08:46:06;6.63;;;5.93;;
14847;SDS011;7516;43.570;1.448;2023-02-28T08:48:34;6.10;;;5.10;;
14847;SDS011;7516;43.570;1.448;2023-02-28T08:51:04;6.30;;;4.80;;
14847;SDS011;7516;43.570;1.448;2023-02-28T08:53:34;5.77;;;5.03;;
14847;SDS011;7516;43.570;1.448;2023-02-28T08:56:03;7.60;;;5.07;;
14847;SDS011;7516;43.570;1.448;2023-02-28T08:58:32;6.13;;;4.87;;
14847;SDS011;7516;43.570;1.448;2023-02-28T09:01:06;5.70;;;4.47;;
14847;SDS011;7516;43.570;1.448;2023-02-28T09:03:35;5.73;;;4.47;;
14847;SDS011;7516;43.570;1.448;2023-02-28T09:06:03;6.40;;;5.00;;
14847;SDS011;7516;43.570;1.448;2023-02-28T09:08:31;8.82;;;5.22;;
14847;SDS011;7516;43.570;1.448;2023-02-28T09:10:58;6.18;;;4.65;;
14847;SDS011;7516;43.570;1.448;2023-02-28T09:13:26;7.83;;;4.93;;
14847;SDS011;7516;43.570;1.448;2023-02-28T09:15:57;5.50;;;4.60;;
14847;SDS011;7516;43.570;1.448;2023-02-28T09:18:26;5.63;;;4.50;;
14847;SDS011;7516;43.570;1.448;2023-02-28T09:20:54;10.47;;;5.33;;
14847;SDS011;7516;43.570;1.448;2023-02-28T09:23:23;6.67;;;3.80;;
14847;SDS011;7516;43.570;1.448;2023-02-28T09:25:51;4.43;;;3.83;;
14847;SDS011;7516;43.570;1.448;2023-02-28T09:28:21;5.30;;;4.33;;
14847;SDS011;7516;43.570;1.448;2023-02-28T09:30:50;6.50;;;4.20;;
14847;SDS011;7516;43.570;1.448;2023-02-28T09:33:20;5.67;;;4.33;;
14847;SDS011;7516;43.570;1.448;2023-02-28T09:35:50;6.17;;;3.97;;
14847;SDS011;7516;43.570;1.448;2023-02-28T09:38:23;6.80;;;4.17;;
14847;SDS011;7516;43.570;1.448;2023-02-28T09:40:52;6.00;;;3.80;;
14847;SDS011;7516;43.570;1.448;2023-02-28T09:43:22;5.63;;;4.50;;
14847;SDS011;7516;43.570;1.448;2023-02-28T09:45:54;4.90;;;3.97;;
14847;SDS011;7516;43.570;1.448;2023-02-28T09:48:27;5.27;;;4.23;;
14847;SDS011;7516;43.570;1.448;2023-02-28T09:51:00;6.97;;;4.17;;
14847;SDS011;7516;43.570;1.448;2023-02-28T09:53:31;5.57;;;4.50;;
14847;SDS011;7516;43.570;1.448;2023-02-28T09:56:04;6.97;;;3.73;;
14847;SDS011;7516;43.570;1.448;2023-02-28T09:58:34;7.33;;;4.40;;
14847;SDS011;7516;43.570;1.448;2023-02-28T10:01:09;5.37;;;4.20;;
14847;SDS011;7516;43.570;1.448;2023-02-28T10:03:47;5.40;;;4.50;;
14847;SDS011;7516;43.570;1.448;2023-02-28T10:06:26;5.23;;;4.73;;
14847;SDS011;7516;43.570;1.448;2023-02-28T10:08:58;6.13;;;5.13;;
14847;SDS011;7516;43.570;1.448;2023-02-28T10:11:29;6.40;;;4.87;;
14847;SDS011;7516;43.570;1.448;2023-02-28T10:14:02;7.50;;;4.87;;
14847;SDS011;7516;43.570;1.448;2023-02-28T10:16:38;7.07;;;5.07;;
14847;SDS011;7516;43.570;1.448;2023-02-28T10:19:12;5.20;;;4.70;;
14847;SDS011;7516;43.570;1.448;2023-02-28T10:21:47;5.20;;;4.70;;
14847;SDS011;7516;43.570;1.448;2023-02-28T10:24:23;5.87;;;4.67;;
14847;SDS011;7516;43.570;1.448;2023-02-28T10:26:59;6.27;;;4.40;;
14847;SDS011;7516;43.570;1.448;2023-02-28T10:29:27;7.27;;;4.67;;
14847;SDS011;7516;43.570;1.448;2023-02-28T10:31:59;6.13;;;4.37;;
14847;SDS011;7516;43.570;1.448;2023-02-28T10:34:29;5.87;;;4.20;;
14847;SDS011;7516;43.570;1.448;2023-02-28T10:36:58;6.13;;;5.00;;
14847;SDS011;7516;43.570;1.448;2023-02-28T10:39:39;5.37;;;4.80;;
14847;SDS011;7516;43.570;1.448;2023-02-28T10:42:21;5.10;;;4.27;;
14847;SDS011;7516;43.570;1.448;2023-02-28T10:47:38;5.27;;;4.63;;
14847;SDS011;7516;43.570;1.448;2023-02-28T10:50:26;4.97;;;4.27;;
14847;SDS011;7516;43.570;1.448;2023-02-28T10:53:04;4.80;;;3.93;;
14847;SDS011;7516;43.570;1.448;2023-02-28T10:55:55;5.43;;;3.90;;
14847;SDS011;7516;43.570;1.448;2023-02-28T10:58:25;6.80;;;4.30;;
14847;SDS011;7516;43.570;1.448;2023-02-28T11:00:54;4.97;;;4.40;;
14847;SDS011;7516;43.570;1.448;2023-02-28T11:03:23;5.23;;;4.23;;
14847;SDS011;7516;43.570;1.448;2023-02-28T11:05:56;7.10;;;4.47;;
14847;SDS011;7516;43.570;1.448;2023-02-28T11:08:26;6.73;;;4.53;;
14847;SDS011;7516;43.570;1.448;2023-02-28T11:10:54;5.27;;;4.40;;
14847;SDS011;7516;43.570;1.448;2023-02-28T11:13:28;6.13;;;4.70;;
14847;SDS011;7516;43.570;1.448;2023-02-28T11:15:59;6.07;;;4.63;;
14847;SDS011;7516;43.570;1.448;2023-02-28T11:18:30;5.13;;;4.53;;
14847;SDS011;7516;43.570;1.448;2023-02-28T11:21:05;5.40;;;4.90;;
14847;SDS011;7516;43.570;1.448;2023-02-28T11:23:36;5.27;;;4.47;;
14847;SDS011;7516;43.570;1.448;2023-02-28T11:26:07;5.40;;;4.80;;
14847;SDS011;7516;43.570;1.448;2023-02-28T11:28:37;5.83;;;4.83;;
14847;SDS011;7516;43.570;1.448;2023-02-28T11:31:15;5.80;;;4.60;;
14847;SDS011;7516;43.570;1.448;2023-02-28T11:33:45;8.10;;;5.10;;
14847;SDS011;7516;43.570;1.448;2023-02-28T11:36:17;5.03;;;4.53;;
14847;SDS011;7516;43.570;1.448;2023-02-28T11:38:48;5.67;;;4.40;;
14847;SDS011;7516;43.570;1.448;2023-02-28T11:41:21;6.33;;;5.20;;
14847;SDS011;7516;43.570;1.448;2023-02-28T11:44:05;5.43;;;4.50;;
14847;SDS011;7516;43.570;1.448;2023-02-28T11:46:47;4.97;;;4.47;;
14847;SDS011;7516;43.570;1.448;2023-02-28T11:49:30;6.53;;;4.80;;
14847;SDS011;7516;43.570;1.448;2023-02-28T11:52:05;5.33;;;4.43;;
14847;SDS011;7516;43.570;1.448;2023-02-28T11:57:46;5.20;;;4.13;;
14847;SDS011;7516;43.570;1.448;2023-02-28T12:00:28;6.53;;;4.57;;
14847;SDS011;7516;43.570;1.448;2023-02-28T12:03:10;6.27;;;4.30;;
14847;SDS011;7516;43.570;1.448;2023-02-28T12:05:49;4.70;;;4.20;;
14847;SDS011;7516;43.570;1.448;2023-02-28T12:08:31;6.30;;;3.90;;
14847;SDS011;7516;43.570;1.448;2023-02-28T12:11:13;4.80;;;4.10;;
14847;SDS011;7516;43.570;1.448;2023-02-28T12:13:55;5.93;;;4.83;;
14847;SDS011;7516;43.570;1.448;2023-02-28T12:16:44;5.20;;;4.33;;
14847;SDS011;7516;43.570;1.448;2023-02-28T12:19:19;4.87;;;4.30;;
14847;SDS011;7516;43.570;1.448;2023-02-28T12:22:05;6.13;;;4.70;;
14847;SDS011;7516;43.570;1.448;2023-02-28T12:25:01;6.97;;;4.77;;
14847;SDS011;7516;43.570;1.448;2023-02-28T12:28:02;7.67;;;4.57;;
14847;SDS011;7516;43.570;1.448;2023-02-28T12:30:31;6.53;;;5.20;;
14847;SDS011;7516;43.570;1.448;2023-02-28T12:33:02;6.63;;;4.80;;
14847;SDS011;7516;43.570;1.448;2023-02-28T12:35:32;5.20;;;4.70;;
14847;SDS011;7516;43.570;1.448;2023-02-28T12:38:05;5.57;;;4.97;;
14847;SDS011;7516;43.570;1.448;2023-02-28T12:40:43;5.63;;;4.40;;
14847;SDS011;7516;43.570;1.448;2023-02-28T12:43:16;5.50;;;4.90;;
14847;SDS011;7516;43.570;1.448;2023-02-28T12:45:48;6.23;;;5.20;;
14847;SDS011;7516;43.570;1.448;2023-02-28T12:48:21;5.80;;;4.97;;
14847;SDS011;7516;43.570;1.448;2023-02-28T12:50:54;8.43;;;5.20;;
14847;SDS011;7516;43.570;1.448;2023-02-28T12:53:24;6.13;;;4.80;;
14847;SDS011;7516;43.570;1.448;2023-02-28T12:55:58;6.60;;;4.77;;
14847;SDS011;7516;43.570;1.448;2023-02-28T12:58:37;6.27;;;5.30;;
14847;SDS011;7516;43.570;1.448;2023-02-28T13:01:17;5.60;;;4.30;;
14847;SDS011;7516;43.570;1.448;2023-02-28T13:04:08;6.20;;;5.07;;
14847;SDS011;7516;43.570;1.448;2023-02-28T13:07:10;5.63;;;5.03;;
14847;SDS011;7516;43.570;1.448;2023-02-28T13:09:56;5.97;;;5.27;;
14847;SDS011;7516;43.570;1.448;2023-02-28T13:12:26;8.17;;;5.40;;
14847;SDS011;7516;43.570;1.448;2023-02-28T13:15:02;6.07;;;5.40;;
14847;SDS011;7516;43.570;1.448;2023-02-28T13:17:38;7.27;;;4.93;;
14847;SDS011;7516;43.570;1.448;2023-02-28T13:20:14;6.40;;;5.63;;
14847;SDS011;7516;43.570;1.448;2023-02-28T13:22:44;5.33;;;4.53;;
14847;SDS011;7516;43.570;1.448;2023-02-28T13:31:32;6.30;;;4.90;;
14847;SDS011;7516;43.570;1.448;2023-02-28T13:34:15;6.83;;;4.80;;
14847;SDS011;7516;43.570;1.448;2023-02-28T13:36:43;5.73;;;5.03;;
14847;SDS011;7516;43.570;1.448;2023-02-28T13:45:21;7.43;;;4.63;;
14847;SDS011;7516;43.570;1.448;2023-02-28T13:47:56;5.00;;;4.47;;
14847;SDS011;7516;43.570;1.448;2023-02-28T13:50:27;4.70;;;4.30;;
14847;SDS011;7516;43.570;1.448;2023-02-28T13:53:04;4.77;;;4.00;;
14847;SDS011;7516;43.570;1.448;2023-02-28T13:55:57;4.97;;;4.20;;
14847;SDS011;7516;43.570;1.448;2023-02-28T13:58:37;5.03;;;4.10;;
14847;SDS011;7516;43.570;1.448;2023-02-28T14:01:17;4.90;;;3.70;;
14847;SDS011;7516;43.570;1.448;2023-02-28T14:07:06;4.53;;;3.80;;
14847;SDS011;7516;43.570;1.448;2023-02-28T14:09:37;5.60;;;4.17;;
14847;SDS011;7516;43.570;1.448;2023-02-28T14:15:25;4.20;;;3.80;;
14847;SDS011;7516;43.570;1.448;2023-02-28T14:18:03;6.00;;;3.87;;
14847;SDS011;7516;43.570;1.448;2023-02-28T14:20:37;4.17;;;3.30;;
14847;SDS011;7516;43.570;1.448;2023-02-28T14:23:12;5.60;;;4.03;;
14847;SDS011;7516;43.570;1.448;2023-02-28T14:25:47;4.93;;;3.83;;
14847;SDS011;7516;43.570;1.448;2023-02-28T14:28:33;4.90;;;4.50;;
14847;SDS011;7516;43.570;1.448;2023-02-28T14:31:13;6.00;;;4.53;;
14847;SDS011;7516;43.570;1.448;2023-02-28T14:33:57;6.63;;;4.90;;
14847;SDS011;7516;43.570;1.448;2023-02-28T14:36:36;6.23;;;4.67;;
14847;SDS011;7516;43.570;1.448;2023-02-28T14:39:10;4.90;;;4.40;;
14847;SDS011;7516;43.570;1.448;2023-02-28T14:41:41;4.93;;;4.40;;
14847;SDS011;7516;43.570;1.448;2023-02-28T14:44:14;6.07;;;4.40;;
14847;SDS011;7516;43.570;1.448;2023-02-28T14:46:44;5.53;;;4.50;;
14847;SDS011;7516;43.570;1.448;2023-02-28T14:49:16;4.43;;;4.03;;
14847;SDS011;7516;43.570;1.448;2023-02-28T14:51:45;5.07;;;4.20;;
14847;SDS011;7516;43.570;1.448;2023-02-28T14:54:16;4.27;;;3.60;;
14847;SDS011;7516;43.570;1.448;2023-02-28T14:56:49;6.40;;;4.00;;
14847;SDS011;7516;43.570;1.448;2023-02-28T14:59:25;4.70;;;4.20;;
14847;SDS011;7516;43.570;1.448;2023-02-28T15:02:14;7.20;;;4.00;;
14847;SDS011;7516;43.570;1.448;2023-02-28T15:04:43;5.47;;;3.93;;
14847;SDS011;7516;43.570;1.448;2023-02-28T15:07:18;5.53;;;4.00;;
14847;SDS011;7516;43.570;1.448;2023-02-28T15:10:07;4.70;;;4.03;;
14847;SDS011;7516;43.570;1.448;2023-02-28T15:12:49;4.07;;;3.60;;
14847;SDS011;7516;43.570;1.448;2023-02-28T15:15:21;5.07;;;3.93;;
14847;SDS011;7516;43.570;1.448;2023-02-28T15:17:51;5.13;;;4.00;;
14847;SDS011;7516;43.570;1.448;2023-02-28T15:20:22;4.57;;;3.80;;
14847;SDS011;7516;43.570;1.448;2023-02-28T15:22:52;4.97;;;4.10;;
14847;SDS011;7516;43.570;1.448;2023-02-28T15:25:24;5.10;;;4.33;;
14847;SDS011;7516;43.570;1.448;2023-02-28T15:27:52;6.70;;;4.10;;
14847;SDS011;7516;43.570;1.448;2023-02-28T15:30:24;4.27;;;3.87;;
14847;SDS011;7516;43.570;1.448;2023-02-28T15:33:07;4.93;;;3.40;;
14847;SDS011;7516;43.570;1.448;2023-02-28T15:35:44;5.73;;;3.80;;
14847;SDS011;7516;43.570;1.448;2023-02-28T15:38:14;6.80;;;4.00;;
14847;SDS011;7516;43.570;1.448;2023-02-28T15:40:46;4.63;;;3.47;;
14847;SDS011;7516;43.570;1.448;2023-02-28T15:43:19;4.90;;;4.13;;
14847;SDS011;7516;43.570;1.448;2023-02-28T15:45:53;4.53;;;3.70;;
14847;SDS011;7516;43.570;1.448;2023-02-28T15:48:24;7.60;;;4.23;;
14847;SDS011;7516;43.570;1.448;2023-02-28T15:50:55;7.43;;;4.27;;
14847;SDS011;7516;43.570;1.448;2023-02-28T15:53:29;5.00;;;3.70;;
14847;SDS011;7516;43.570;1.448;2023-02-28T15:56:00;6.03;;;4.90;;
14847;SDS011;7516;43.570;1.448;2023-02-28T15:58:29;4.97;;;4.10;;
14847;SDS011;7516;43.570;1.448;2023-02-28T16:01:05;6.17;;;3.63;;